Time;durP1;ratioP1;P1;durP2;ratioP2;P2;SDS_P1;SDS_P2;PMS_P1;PMS_P2;Temp;Humidity;BMP_temperature;BMP_pressure;BME280_temperature;BME280_humidity;BME280_pressure;Samples;Min_cycle;Max_cycle;Signal;HPM_P1;HPM_P2
2023/10/27 00:00:14;;;;;;;5.90;1.55;;;17.50;63.30;;;;;;5100498;28;20237;-60
2023/10/27 00:02:41;;;;;;;3.45;1.80;;;17.50;63.40;;;;;;5104041;28;20185;-61
2023/10/27 00:05:09;;;;;;;4.18;1.95;;;17.50;63.30;;;;;;5095299;28;20300;-62
2023/10/27 00:07:36;;;;;;;5.50;2.30;;;17.50;63.40;;;;;;5107346;28;20296;-62
2023/10/27 00:10:03;;;;;;;3.70;1.40;;;17.50;63.30;;;;;;5097843;28;20292;-58
2023/10/27 00:15:43;;;;;;;4.57;1.80;;;17.50;63.40;;;;;;5093234;28;20228;-63
2023/10/27 00:18:10;;;;;;;3.42;1.60;;;17.40;63.20;;;;;;5099765;28;20185;-59
2023/10/27 00:20:37;;;;;;;8.45;2.30;;;17.50;63.30;;;;;;5108268;28;20446;-61
2023/10/27 00:23:04;;;;;;;3.15;1.38;;;17.50;63.30;;;;;;5094842;28;20577;-60
2023/10/27 00:25:31;;;;;;;4.00;1.60;;;17.50;63.40;;;;;;5105827;28;20214;-61
2023/10/27 00:27:58;;;;;;;3.88;1.50;;;17.50;63.30;;;;;;5098390;28;20185;-62
2023/10/27 00:30:25;;;;;;;5.90;2.38;;;17.50;63.40;;;;;;5098653;28;20221;-60
2023/10/27 00:32:54;;;;;;;3.80;1.52;;;17.50;63.30;;;;;;5105930;28;20191;-62
2023/10/27 00:35:22;;;;;;;4.20;1.30;;;17.50;64.10;;;;;;5094886;28;20222;-59
2023/10/27 00:37:49;;;;;;;5.10;1.73;;;17.50;63.30;;;;;;5101911;28;20257;-62
2023/10/27 00:40:16;;;;;;;8.35;1.40;;;17.50;63.30;;;;;;5100144;28;20718;-62
2023/10/27 00:42:43;;;;;;;5.00;1.50;;;17.50;63.40;;;;;;5096903;28;20190;-61
2023/10/27 00:45:10;;;;;;;4.15;2.08;;;17.50;63.30;;;;;;5106100;28;20216;-60
2023/10/27 00:47:37;;;;;;;2.47;1.40;;;17.50;63.40;;;;;;5096061;28;20281;-60
2023/10/27 00:50:07;;;;;;;4.50;1.50;;;17.50;63.40;;;;;;5100623;28;20292;-62
2023/10/27 00:52:35;;;;;;;6.68;1.88;;;17.50;63.30;;;;;;5102550;28;20654;-62
2023/10/27 00:55:08;;;;;;;4.05;1.40;;;17.50;63.40;;;;;;5095437;28;20209;-59
2023/10/27 00:57:37;;;;;;;4.65;1.85;;;17.50;63.40;;;;;;5093634;28;20622;-61
2023/10/27 01:00:07;;;;;;;8.63;2.72;;;17.40;63.20;;;;;;5101765;28;20214;-60
2023/10/27 01:02:34;;;;;;;8.05;1.63;;;17.50;63.40;;;;;;5102444;28;20189;-60
2023/10/27 01:05:01;;;;;;;3.55;1.30;;;17.40;63.20;;;;;;5094532;28;20210;-62
2023/10/27 01:07:30;;;;;;;4.60;1.50;;;17.40;63.20;;;;;;5106686;28;20269;-59
2023/10/27 01:09:57;;;;;;;4.47;1.60;;;17.40;63.20;;;;;;5094385;28;20363;-59
2023/10/27 01:12:24;;;;;;;4.18;1.42;;;17.40;63.20;;;;;;5099201;28;20329;-63
2023/10/27 01:14:51;;;;;;;5.60;1.45;;;17.40;63.20;;;;;;5104016;28;20717;-64
2023/10/27 01:17:18;;;;;;;6.43;1.80;;;17.50;64.10;;;;;;5092291;28;20213;-61
2023/10/27 01:19:45;;;;;;;6.53;1.80;;;17.40;63.20;;;;;;5103864;28;20493;-62
2023/10/27 01:22:14;;;;;;;4.05;1.58;;;17.40;63.20;;;;;;5099360;28;20186;-61
2023/10/27 01:24:43;;;;;;;4.28;1.63;;;17.40;63.20;;;;;;5096807;28;20267;-61
2023/10/27 01:27:10;;;;;;;4.88;1.85;;;17.40;63.20;;;;;;5107328;28;20197;-60
2023/10/27 01:29:37;;;;;;;3.75;1.38;;;17.40;63.20;;;;;;5095153;28;20185;-61
2023/10/27 01:32:04;;;;;;;4.90;1.67;;;17.40;63.20;;;;;;5101858;28;20277;-61
2023/10/27 01:34:31;;;;;;;3.72;1.58;;;17.40;63.20;;;;;;5100997;28;20207;-62
2023/10/27 01:36:58;;;;;;;5.28;1.40;;;17.40;63.20;;;;;;5093529;28;20216;-62
2023/10/27 01:39:25;;;;;;;4.53;1.42;;;17.40;63.20;;;;;;5106234;28;20216;-61
2023/10/27 01:41:54;;;;;;;5.80;1.58;;;17.40;63.20;;;;;;5097016;28;20204;-60
2023/10/27 01:44:21;;;;;;;7.32;1.92;;;17.40;63.20;;;;;;5099266;28;20273;-56
2023/10/27 01:46:48;;;;;;;3.30;1.67;;;17.40;63.20;;;;;;5105165;28;20220;-61
2023/10/27 01:49:15;;;;;;;3.33;1.67;;;17.40;63.20;;;;;;5093723;28;20560;-61
2023/10/27 01:51:42;;;;;;;4.65;1.65;;;17.50;63.30;;;;;;5095825;28;20204;-57
2023/10/27 01:54:09;;;;;;;6.57;1.67;;;17.40;63.20;;;;;;5100803;28;20648;-59
2023/10/27 01:56:36;;;;;;;4.75;1.65;;;17.40;63.20;;;;;;5101956;28;20260;-61
2023/10/27 01:59:05;;;;;;;5.75;1.52;;;17.40;63.20;;;;;;5094064;28;20534;-59
2023/10/27 02:01:32;;;;;;;3.38;1.27;;;17.40;63.20;;;;;;5094177;28;20303;-61
2023/10/27 02:03:59;;;;;;;6.75;1.33;;;17.40;63.20;;;;;;5101662;28;20279;-62
2023/10/27 02:06:28;;;;;;;3.38;1.73;;;17.40;64.00;;;;;;5101864;28;20225;-61
2023/10/27 02:08:55;;;;;;;4.68;1.60;;;17.40;63.20;;;;;;5095491;28;20201;-62
2023/10/27 02:11:23;;;;;;;5.40;1.30;;;17.40;63.20;;;;;;5091599;28;20217;-61
2023/10/27 02:13:50;;;;;;;5.05;1.63;;;17.40;63.20;;;;;;5097166;28;20185;-62
2023/10/27 02:16:18;;;;;;;6.70;1.33;;;17.40;63.20;;;;;;5097878;28;20328;-57
2023/10/27 02:18:45;;;;;;;4.45;1.60;;;17.40;63.20;;;;;;5105487;28;20707;-59
2023/10/27 02:21:12;;;;;;;4.65;1.27;;;17.40;63.20;;;;;;5097465;28;20654;-59
2023/10/27 02:23:39;;;;;;;3.75;1.30;;;17.40;63.20;;;;;;5108547;28;20186;-59
2023/10/27 02:26:06;;;;;;;5.05;1.35;;;17.40;63.20;;;;;;5102295;28;20240;-59
2023/10/27 02:28:34;;;;;;;3.60;1.65;;;17.40;63.20;;;;;;5101403;28;20186;-62
2023/10/27 02:31:01;;;;;;;3.78;1.67;;;17.40;63.20;;;;;;5108665;28;20223;-57
2023/10/27 02:33:29;;;;;;;3.10;1.27;;;17.40;63.20;;;;;;5097491;28;20273;-61
2023/10/27 02:35:56;;;;;;;3.00;1.10;;;17.40;63.20;;;;;;5098532;28;20296;-61
2023/10/27 02:38:23;;;;;;;4.10;1.30;;;17.40;63.20;;;;;;5100899;28;20226;-61
2023/10/27 02:40:50;;;;;;;3.45;1.30;;;17.40;63.20;;;;;;5107056;28;20307;-61
2023/10/27 02:43:17;;;;;;;4.88;1.55;;;17.40;63.20;;;;;;5096716;28;20640;-62
2023/10/27 02:45:44;;;;;;;5.00;1.50;;;17.40;63.20;;;;;;5107023;28;20210;-62
2023/10/27 02:48:10;;;;;;;4.47;1.60;;;17.40;63.20;;;;;;5101795;28;20892;-60
2023/10/27 02:50:38;;;;;;;2.47;1.13;;;17.40;63.20;;;;;;5099946;28;20224;-62
2023/10/27 02:53:05;;;;;;;4.55;1.33;;;17.40;63.20;;;;;;5110108;28;20185;-60
2023/10/27 02:55:36;;;;;;;3.72;1.48;;;17.40;63.20;;;;;;5097097;28;20291;-59
2023/10/27 02:58:03;;;;;;;4.10;1.50;;;17.40;63.20;;;;;;5103727;28;20296;-61
2023/10/27 03:00:30;;;;;;;3.72;1.55;;;17.40;63.20;;;;;;5104005;28;20305;-61
2023/10/27 03:02:57;;;;;;;2.63;1.33;;;17.40;63.20;;;;;;5097577;28;20186;-62
2023/10/27 03:05:24;;;;;;;4.28;1.48;;;17.40;64.00;;;;;;5107453;28;20311;-62
2023/10/27 03:07:52;;;;;;;5.13;1.38;;;17.40;63.20;;;;;;5099440;28;20268;-61
2023/10/27 03:10:20;;;;;;;2.63;1.10;;;17.40;63.20;;;;;;5105349;28;20304;-61
2023/10/27 03:12:47;;;;;;;3.35;1.38;;;17.40;63.20;;;;;;5093717;28;20192;-59
2023/10/27 03:15:14;;;;;;;2.78;1.17;;;17.40;63.20;;;;;;5108054;28;20292;-61
2023/10/27 03:17:41;;;;;;;3.35;1.30;;;17.40;63.20;;;;;;5096841;28;20654;-60
2023/10/27 03:20:09;;;;;;;3.22;1.17;;;17.40;63.20;;;;;;5102887;28;20210;-62
2023/10/27 03:22:36;;;;;;;5.20;1.60;;;17.40;63.20;;;;;;5105086;28;20276;-59
2023/10/27 03:25:05;;;;;;;5.10;1.45;;;17.40;63.10;;;;;;5096014;28;20205;-59
2023/10/27 03:27:33;;;;;;;2.80;1.23;;;17.40;63.90;;;;;;5096517;28;20189;-59
2023/10/27 03:30:00;;;;;;;2.67;1.30;;;17.30;63.80;;;;;;5103217;28;20178;-61
2023/10/27 03:32:27;;;;;;;3.70;1.48;;;17.40;63.10;;;;;;5104432;28;20193;-61
2023/10/27 03:34:55;;;;;;;3.95;1.70;;;17.40;63.10;;;;;;5097028;28;20198;-59
2023/10/27 03:37:22;;;;;;;2.75;1.23;;;17.40;63.10;;;;;;5094694;28;20317;-56
2023/10/27 03:39:49;;;;;;;5.10;1.50;;;17.40;63.10;;;;;;5105831;28;20269;-58
2023/10/27 03:42:17;;;;;;;2.72;1.40;;;17.40;63.00;;;;;;5101741;28;20307;-59
2023/10/27 03:44:44;;;;;;;3.38;1.25;;;17.40;63.00;;;;;;5098253;28;20178;-61
2023/10/27 03:47:11;;;;;;;1.90;1.15;;;17.30;62.80;;;;;;5109188;28;20242;-61
2023/10/27 03:49:38;;;;;;;3.90;1.13;;;17.30;63.60;;;;;;5096766;28;20264;-61
2023/10/27 03:52:06;;;;;;;2.30;1.20;;;17.30;62.80;;;;;;5102631;28;20210;-61
2023/10/27 03:54:33;;;;;;;3.20;1.15;;;17.30;62.80;;;;;;5103877;28;20193;-58
2023/10/27 03:57:01;;;;;;;2.58;1.30;;;17.40;62.80;;;;;;5093676;28;20911;-61
2023/10/27 03:59:30;;;;;;;4.82;1.33;;;17.30;62.70;;;;;;5108449;28;20265;-59
2023/10/27 04:01:56;;;;;;;3.95;1.30;;;17.40;62.80;;;;;;5099451;28;20213;-61
2023/10/27 04:04:23;;;;;;;3.38;1.50;;;17.30;62.70;;;;;;5100750;28;20265;-62
2023/10/27 04:06:51;;;;;;;3.97;1.00;;;17.30;62.70;;;;;;5106073;28;20300;-61
2023/10/27 04:09:18;;;;;;;4.03;1.23;;;17.30;62.60;;;;;;5095424;28;20182;-60
2023/10/27 04:11:45;;;;;;;3.55;1.40;;;17.30;62.60;;;;;;5101125;28;20617;-61
2023/10/27 04:14:12;;;;;;;4.03;1.30;;;17.30;62.60;;;;;;5102856;28;20282;-61
2023/10/27 04:16:40;;;;;;;4.53;1.20;;;17.30;62.60;;;;;;5096754;28;20297;-61
2023/10/27 04:19:07;;;;;;;3.60;1.42;;;17.30;62.60;;;;;;5093832;28;20185;-61
2023/10/27 04:21:34;;;;;;;4.22;1.48;;;17.30;62.60;;;;;;5096486;28;20217;-60
2023/10/27 04:24:01;;;;;;;3.63;1.45;;;17.30;62.60;;;;;;5103837;28;20635;-60
2023/10/27 04:26:28;;;;;;;2.13;1.20;;;17.30;62.60;;;;;;5101724;28;20782;-61
2023/10/27 04:28:55;;;;;;;5.93;1.30;;;17.30;62.60;;;;;;5101155;28;20200;-61
2023/10/27 04:31:22;;;;;;;5.60;1.50;;;17.30;62.60;;;;;;5094649;28;20601;-60
2023/10/27 04:33:51;;;;;;;4.80;1.25;;;17.30;62.50;;;;;;5105459;28;20648;-61
2023/10/27 04:36:18;;;;;;;5.72;1.25;;;17.30;62.50;;;;;;5099587;28;20340;-62
2023/10/27 04:38:45;;;;;;;1.80;1.00;;;17.30;62.60;;;;;;5104285;28;20229;-60
2023/10/27 04:41:12;;;;;;;5.15;1.33;;;17.30;62.50;;;;;;5093030;28;20738;-59
2023/10/27 04:43:39;;;;;;;2.88;1.17;;;17.30;62.50;;;;;;5106729;28;20185;-62
2023/10/27 04:46:07;;;;;;;2.35;0.95;;;17.30;62.50;;;;;;5099536;28;20304;-60
2023/10/27 04:48:34;;;;;;;3.60;1.10;;;17.30;62.50;;;;;;5101769;28;20642;-61
2023/10/27 04:51:04;;;;;;;3.00;1.15;;;17.30;62.50;;;;;;5106409;28;20216;-62
2023/10/27 04:53:31;;;;;;;3.30;1.20;;;17.30;62.50;;;;;;5094868;28;20181;-57
2023/10/27 04:55:58;;;;;;;4.18;1.45;;;17.30;62.50;;;;;;5096872;28;20215;-61
2023/10/27 04:58:25;;;;;;;5.13;1.35;;;17.30;62.50;;;;;;5099304;28;20209;-60
2023/10/27 05:00:52;;;;;;;4.68;1.17;;;17.30;62.50;;;;;;5105069;28;20273;-62
2023/10/27 05:03:19;;;;;;;3.20;1.30;;;17.30;62.50;;;;;;5093816;28;20274;-63
2023/10/27 05:05:46;;;;;;;4.38;1.25;;;17.30;62.50;;;;;;5103952;28;20216;-60
2023/10/27 05:08:15;;;;;;;3.50;1.20;;;17.30;62.50;;;;;;5100820;28;20610;-60
2023/10/27 05:10:42;;;;;;;3.63;1.30;;;17.30;62.40;;;;;;5101598;28;20654;-58
2023/10/27 05:13:09;;;;;;;4.82;1.30;;;17.30;62.50;;;;;;5094813;28;20268;-61
2023/10/27 05:15:38;;;;;;;4.45;1.10;;;17.30;62.50;;;;;;5105594;28;20292;-61
2023/10/27 05:18:05;;;;;;;3.17;1.20;;;17.30;62.40;;;;;;5097775;28;20219;-61
2023/10/27 05:20:37;;;;;;;1.80;1.02;;;17.30;62.50;;;;;;5097685;28;20218;-59
2023/10/27 05:23:04;;;;;;;3.55;1.08;;;17.30;62.40;;;;;;5094218;28;20194;-61
2023/10/27 05:25:34;;;;;;;4.15;1.52;;;17.30;62.50;;;;;;5093815;28;20291;-62
2023/10/27 05:28:01;;;;;;;2.42;1.15;;;17.30;62.40;;;;;;5102376;28;20182;-61
2023/10/27 05:30:28;;;;;;;7.68;1.17;;;17.20;62.30;;;;;;5100955;28;20353;-61
2023/10/27 05:32:55;;;;;;;6.32;1.55;;;17.30;62.30;;;;;;5094521;28;20190;-61
2023/10/27 05:35:22;;;;;;;5.10;1.85;;;17.30;62.30;;;;;;5106376;28;20217;-59
2023/10/27 05:37:49;;;;;;;3.45;1.27;;;17.30;62.30;;;;;;5095840;28;20228;-61
2023/10/27 05:40:16;;;;;;;3.85;1.40;;;17.20;62.20;;;;;;5099912;28;20256;-62
2023/10/27 05:42:45;;;;;;;3.83;1.00;;;17.20;62.20;;;;;;5103725;28;20268;-61
2023/10/27 05:45:13;;;;;;;3.03;1.30;;;17.20;62.20;;;;;;5094213;28;20182;-61
2023/10/27 05:47:40;;;;;;;2.53;1.25;;;17.30;62.30;;;;;;5104569;28;20187;-60
2023/10/27 05:50:08;;;;;;;4.68;1.20;;;17.20;62.30;;;;;;5098399;28;20188;-59
2023/10/27 05:52:35;;;;;;;7.00;1.40;;;17.20;62.30;;;;;;5098166;28;20270;-60
2023/10/27 05:55:04;;;;;;;3.22;1.05;;;17.20;62.20;;;;;;5109898;28;20202;-61
2023/10/27 05:57:31;;;;;;;3.78;1.23;;;17.30;62.30;;;;;;5096672;28;20254;-59
2023/10/27 06:00:00;;;;;;;3.33;1.17;;;17.20;62.20;;;;;;5107533;28;20199;-60
2023/10/27 06:02:28;;;;;;;3.08;1.15;;;17.20;62.20;;;;;;5103918;28;20202;-60
2023/10/27 06:04:59;;;;;;;4.82;1.40;;;17.20;62.20;;;;;;5109100;28;20227;-57
2023/10/27 06:07:26;;;;;;;3.63;1.40;;;17.20;62.20;;;;;;5100639;28;20204;-59
2023/10/27 06:09:54;;;;;;;4.45;1.35;;;17.30;62.30;;;;;;5113376;28;20236;-61
2023/10/27 06:12:21;;;;;;;2.88;1.25;;;17.30;62.30;;;;;;5111770;28;20833;-60
2023/10/27 06:20:30;;;;;;;3.42;1.25;;;17.30;62.20;;;;;;5100390;28;20717;-59
2023/10/27 06:23:10;;;;;;;4.03;1.25;;;17.30;62.20;;;;;;5094673;28;20194;-59
2023/10/27 06:25:41;;;;;;;3.92;1.30;;;17.30;62.20;;;;;;5103023;28;20217;-62
2023/10/27 06:28:20;;;;;;;4.40;1.35;;;17.30;62.20;;;;;;5112440;28;20301;-62
2023/10/27 06:31:41;;;;;;;1.95;1.00;;;17.30;62.20;;;;;;5077755;28;20216;-61
2023/10/27 06:34:22;;;;;;;4.93;1.38;;;17.30;62.10;;;;;;5089809;28;20189;-59
2023/10/27 06:36:59;;;;;;;3.08;1.17;;;17.30;62.10;;;;;;5093957;28;20222;-61
2023/10/27 06:39:26;;;;;;;3.65;1.38;;;17.30;62.10;;;;;;5051559;28;20217;-59
2023/10/27 06:41:53;;;;;;;4.97;1.52;;;17.30;62.10;;;;;;5051068;28;20223;-59
2023/10/27 06:44:20;;;;;;;7.15;1.48;;;17.40;62.40;;;;;;5047202;28;20295;-58
2023/10/27 06:46:47;;;;;;;3.22;1.10;;;17.30;62.20;;;;;;5048872;28;20215;-61
2023/10/27 06:49:15;;;;;;;4.68;1.40;;;17.40;62.30;;;;;;5047299;28;20210;-55
2023/10/27 06:51:43;;;;;;;4.95;1.35;;;17.40;62.30;;;;;;5045710;28;20211;-61
2023/10/27 06:54:10;;;;;;;3.35;1.35;;;17.40;62.40;;;;;;5065732;28;20195;-61
2023/10/27 06:56:37;;;;;;;3.55;1.35;;;17.40;62.40;;;;;;5063594;28;20926;-62
2023/10/27 06:59:22;;;;;;;3.72;1.50;;;17.40;62.40;;;;;;5047485;28;20308;-61
2023/10/27 07:01:54;;;;;;;5.53;1.40;;;17.40;62.30;;;;;;5049207;28;20333;-61
2023/10/27 07:07:06;;;;;;;7.60;1.67;;;17.40;62.40;;;;;;5039959;28;20241;-61
2023/10/27 07:09:34;;;;;;;5.63;1.30;;;17.40;62.30;;;;;;5043343;28;20202;-60
2023/10/27 07:12:01;;;;;;;6.95;1.50;;;17.40;62.30;;;;;;5054587;28;20767;-61
2023/10/27 07:14:28;;;;;;;3.78;1.40;;;17.40;62.30;;;;;;5065861;28;20191;-57
2023/10/27 07:16:56;;;;;;;4.63;1.40;;;17.40;62.30;;;;;;5049967;28;20219;-60
2023/10/27 07:19:25;;;;;;;6.78;1.35;;;17.40;62.30;;;;;;5065298;28;20597;-60
2023/10/27 07:21:54;;;;;;;4.20;1.38;;;17.40;62.30;;;;;;5060479;28;20217;-59
2023/10/27 07:27:02;;;;;;;4.07;1.40;;;17.40;62.30;;;;;;5024730;28;20218;-61
2023/10/27 07:29:46;;;;;;;6.63;1.80;;;17.50;62.30;;;;;;5060181;28;20326;-61
2023/10/27 07:32:14;;;;;;;2.65;1.40;;;17.50;62.40;;;;;;5047081;28;20217;-59
2023/10/27 07:34:47;;;;;;;3.55;1.20;;;17.50;62.40;;;;;;5069222;28;20214;-62
2023/10/27 07:37:17;;;;;;;4.75;1.55;;;17.50;62.30;;;;;;5056858;28;20238;-59
2023/10/27 07:39:45;;;;;;;10.63;1.90;;;17.50;62.30;;;;;;5094657;28;20213;-60
2023/10/27 07:42:13;;;;;;;6.80;1.65;;;17.50;62.40;;;;;;5089874;28;20643;-62
2023/10/27 07:44:53;;;;;;;12.45;2.00;;;17.50;62.80;;;;;;5094875;28;20239;-59
2023/10/27 07:47:41;;;;;;;10.05;2.20;;;17.50;63.30;;;;;;5098096;28;20243;-61
2023/10/27 07:50:11;;;;;;;8.80;1.90;;;17.60;63.40;;;;;;5097352;28;20746;-62
2023/10/27 07:52:39;;;;;;;4.30;2.13;;;17.60;63.50;;;;;;5110732;28;20221;-59
2023/10/27 07:55:07;;;;;;;9.65;2.33;;;17.70;64.60;;;;;;5098884;28;20197;-58
2023/10/27 07:57:34;;;;;;;6.13;2.10;;;17.70;64.60;;;;;;5093136;28;20599;-61
2023/10/27 08:00:02;;;;;;;7.38;2.50;;;17.80;64.20;;;;;;5095177;28;20270;-63
2023/10/27 08:02:32;;;;;;;4.88;1.90;;;17.80;63.80;;;;;;5097646;28;20200;-61
2023/10/27 08:05:00;;;;;;;10.80;2.50;;;17.80;63.80;;;;;;5096919;28;20531;-61
2023/10/27 08:07:29;;;;;;;5.47;2.20;;;17.80;63.90;;;;;;5099241;27;20220;-61
2023/10/27 08:10:07;;;;;;;;;;;;;;;;;;;;;
2023/10/27 08:12:38;;;;;;;6.25;1.63;;;17.80;63.90;;;;;;5094047;28;20227;-60
2023/10/27 08:15:06;;;;;;;13.70;1.98;;;17.80;63.70;;;;;;5058642;28;20197;-57
2023/10/27 08:17:48;;;;;;;9.07;2.42;;;17.80;63.70;;;;;;5098414;28;20216;-61
2023/10/27 08:20:19;;;;;;;7.93;2.00;;;17.80;63.70;;;;;;5091224;28;20205;-62
2023/10/27 08:22:48;;;;;;;9.30;2.08;;;17.80;63.60;;;;;;5099191;28;20221;-61
2023/10/27 08:25:26;;;;;;;5.30;1.83;;;17.80;63.70;;;;;;5101303;28;20193;-60
2023/10/27 08:27:54;;;;;;;5.32;1.73;;;17.80;63.70;;;;;;5057497;28;20217;-55
2023/10/27 08:30:21;;;;;;;6.03;1.80;;;17.80;63.60;;;;;;5100703;28;20186;-63
2023/10/27 08:32:49;;;;;;;9.27;2.10;;;17.80;63.70;;;;;;5097591;28;20252;-62
2023/10/27 08:35:16;;;;;;;7.78;2.13;;;17.90;63.70;;;;;;5104084;28;20230;-59
2023/10/27 08:37:44;;;;;;;5.95;1.95;;;17.90;63.70;;;;;;5093850;28;20327;-62
2023/10/27 08:40:13;;;;;;;6.85;2.10;;;17.80;63.70;;;;;;5101132;28;20221;-60
2023/10/27 08:42:43;;;;;;;7.60;2.20;;;17.90;63.80;;;;;;5096410;28;20733;-58
2023/10/27 08:47:53;;;;;;;7.40;2.42;;;17.90;63.70;;;;;;5065858;28;20575;-62
2023/10/27 08:50:25;;;;;;;9.50;2.10;;;17.90;64.20;;;;;;5096210;28;20690;-59
2023/10/27 08:56:52;;;;;;;11.95;2.13;;;17.80;63.60;;;;;;5025080;28;20200;-59
2023/10/27 08:59:49;;;;;;;9.80;2.00;;;17.90;63.70;;;;;;4961999;28;20230;-61
2023/10/27 09:02:30;;;;;;;5.60;1.92;;;17.90;63.80;;;;;;4994333;28;20224;-61
2023/10/27 09:05:15;;;;;;;;;;;;;;;;;;;;;
2023/10/27 09:07:48;;;;;;;6.95;2.38;;;17.80;63.50;;;;;;4975109;28;20220;-59
2023/10/27 09:10:18;;;;;;;5.90;2.25;;;17.80;63.50;;;;;;5022978;28;20315;-62
2023/10/27 09:13:07;;;;;;;6.03;1.77;;;17.90;63.60;;;;;;5022894;28;20224;-63
2023/10/27 09:15:46;;;;;;;8.15;2.10;;;17.90;63.60;;;;;;5024501;28;20288;-60
2023/10/27 09:21:37;;;;;;;6.18;2.45;;;17.80;64.30;;;;;;4976114;28;20204;-63
2023/10/27 09:24:19;;;;;;;9.95;2.30;;;17.80;63.50;;;;;;5026798;28;20208;-62
2023/10/27 09:26:47;;;;;;;6.00;2.13;;;17.80;63.60;;;;;;5023476;28;20216;-61
2023/10/27 09:29:14;;;;;;;5.90;2.17;;;17.80;63.60;;;;;;5012742;28;20210;-59
2023/10/27 09:31:53;;;;;;;8.45;2.20;;;17.80;63.60;;;;;;5013774;28;20204;-63
2023/10/27 09:34:25;;;;;;;7.60;2.17;;;17.80;63.70;;;;;;5034021;28;20294;-56
2023/10/27 09:36:56;;;;;;;12.20;2.28;;;17.80;63.70;;;;;;5093821;28;20189;-63
2023/10/27 09:39:24;;;;;;;9.13;2.42;;;17.80;63.70;;;;;;5095797;28;20229;-59
2023/10/27 09:42:07;;;;;;;8.45;2.05;;;17.80;63.70;;;;;;5091117;28;20225;-62
2023/10/27 09:44:44;;;;;;;11.13;2.10;;;17.80;64.50;;;;;;5091887;28;20193;-59
2023/10/27 09:47:18;;;;;;;9.43;2.67;;;17.90;63.80;;;;;;5095729;28;20750;-63
2023/10/27 09:49:52;;;;;;;9.40;2.08;;;17.90;63.80;;;;;;5089407;28;20304;-62
2023/10/27 09:52:22;;;;;;;6.88;2.35;;;17.90;64.60;;;;;;5099736;28;20197;-63
2023/10/27 09:54:51;;;;;;;6.82;2.22;;;17.90;63.70;;;;;;5094171;28;20194;-62
2023/10/27 09:57:18;;;;;;;5.72;2.17;;;17.90;63.80;;;;;;5097076;28;20196;-60
2023/10/27 09:59:47;;;;;;;6.43;2.28;;;17.90;63.70;;;;;;5102893;28;20327;-60
2023/10/27 10:02:15;;;;;;;7.63;1.95;;;18.00;63.80;;;;;;5089462;28;20236;-60
2023/10/27 10:05:01;;;;;;;11.88;2.47;;;18.00;63.80;;;;;;5096190;28;20230;-62
2023/10/27 10:07:33;;;;;;;11.27;3.10;;;18.00;63.90;;;;;;5093835;28;20193;-61
2023/10/27 10:10:25;;;;;;;22.38;2.95;;;18.00;63.90;;;;;;5091499;28;20273;-61
2023/10/27 10:13:07;;;;;;;17.70;3.25;;;18.00;63.90;;;;;;5098383;28;20667;-63
2023/10/27 10:15:36;;;;;;;16.33;2.88;;;18.10;63.90;;;;;;5098808;28;20591;-62
2023/10/27 10:18:27;;;;;;;16.17;3.10;;;18.10;64.00;;;;;;5094578;28;20194;-59
2023/10/27 10:20:58;;;;;;;22.75;7.57;;;18.10;64.00;;;;;;5092989;28;20285;-59
2023/10/27 10:23:41;;;;;;;71.85;32.00;;;18.20;64.10;;;;;;5095245;28;20237;-62
2023/10/27 10:26:08;;;;;;;74.88;34.53;;;18.20;64.00;;;;;;5090742;28;20228;-61
2023/10/27 10:31:35;;;;;;;87.65;40.60;;;18.20;63.60;;;;;;5000150;28;20201;-60
2023/10/27 10:34:14;;;;;;;76.53;36.17;;;18.20;63.50;;;;;;5042030;28;20222;-61
2023/10/27 10:36:41;;;;;;;66.65;33.03;;;18.20;63.50;;;;;;5094030;28;20324;-59
2023/10/27 10:39:11;;;;;;;68.10;31.25;;;18.20;63.40;;;;;;5095931;28;20241;-62
2023/10/27 10:42:01;;;;;;;49.30;24.35;;;18.20;63.30;;;;;;5094163;28;20675;-59
2023/10/27 10:44:32;;;;;;;42.40;20.88;;;18.30;63.30;;;;;;5105081;28;20221;-63
2023/10/27 10:47:09;;;;;;;51.33;21.50;;;18.30;63.20;;;;;;5093558;28;20186;-58
2023/10/27 10:49:41;;;;;;;48.97;22.88;;;18.20;63.10;;;;;;5097333;28;20582;-60
2023/10/27 10:52:09;;;;;;;43.63;22.40;;;18.30;63.10;;;;;;5094184;28;20284;-62
2023/10/27 10:54:51;;;;;;;46.78;20.50;;;18.30;63.10;;;;;;5103137;28;20299;-58
2023/10/27 10:57:30;;;;;;;37.30;19.05;;;18.30;63.10;;;;;;5029322;28;20296;-57
2023/10/27 10:59:57;;;;;;;40.03;18.98;;;18.30;62.90;;;;;;5104950;28;20231;-59
2023/10/27 11:02:24;;;;;;;41.10;19.90;;;18.30;62.90;;;;;;5095713;28;20202;-59
2023/10/27 11:04:52;;;;;;;37.28;18.83;;;18.30;63.00;;;;;;5091500;28;20303;-60
2023/10/27 11:07:20;;;;;;;39.45;18.02;;;18.30;63.00;;;;;;5104112;28;20199;-60
2023/10/27 11:09:47;;;;;;;33.75;17.35;;;18.40;63.00;;;;;;5098642;28;20302;-58
2023/10/27 11:12:25;;;;;;;30.45;15.82;;;18.30;62.90;;;;;;5101926;28;20664;-60
2023/10/27 11:14:52;;;;;;;27.25;14.90;;;18.30;63.70;;;;;;5094189;28;20864;-58
2023/10/27 11:17:20;;;;;;;28.30;11.55;;;18.30;63.00;;;;;;5101345;28;20675;-63
2023/10/27 11:19:55;;;;;;;23.17;11.80;;;18.40;63.10;;;;;;5097989;28;20247;-59
2023/10/27 11:25:08;;;;;;;26.77;10.48;;;18.40;63.10;;;;;;5104494;28;20193;-64
2023/10/27 11:27:37;;;;;;;20.30;9.82;;;18.50;63.20;;;;;;5099801;28;20201;-62
2023/10/27 11:30:05;;;;;;;20.85;8.65;;;18.50;62.50;;;;;;5091437;28;20259;-58
2023/10/27 11:32:33;;;;;;;23.58;8.93;;;18.40;62.90;;;;;;5091169;28;20217;-57
2023/10/27 11:35:02;;;;;;;31.95;7.97;;;18.30;61.90;;;;;;5092854;28;20672;-58
2023/10/27 11:37:29;;;;;;;24.13;7.28;;;18.30;61.70;;;;;;5092290;28;20230;-60
2023/10/27 11:39:57;;;;;;;25.83;10.15;;;18.20;61.30;;;;;;5091255;28;20689;-62
2023/10/27 11:42:24;;;;;;;30.10;10.13;;;18.20;61.20;;;;;;5090657;28;20224;-60
2023/10/27 11:44:51;;;;;;;28.90;10.23;;;18.10;60.90;;;;;;5093300;28;20289;-63
2023/10/27 11:47:18;;;;;;;29.80;10.27;;;18.10;60.50;;;;;;5103896;28;20286;-58
2023/10/27 11:49:45;;;;;;;41.10;13.65;;;18.00;60.30;;;;;;5091082;28;20194;-61
2023/10/27 11:52:15;;;;;;;40.90;14.57;;;17.90;60.50;;;;;;5093617;28;20222;-62
2023/10/27 11:54:42;;;;;;;38.20;14.75;;;17.90;61.10;;;;;;5099164;28;20320;-62
2023/10/27 11:57:12;;;;;;;39.13;12.50;;;17.90;61.10;;;;;;5097109;28;20226;-58
2023/10/27 11:59:39;;;;;;;25.83;9.98;;;18.00;60.80;;;;;;5096586;28;20216;-59
2023/10/27 12:02:06;;;;;;;41.00;18.42;;;17.90;60.00;;;;;;5094764;28;20303;-63
2023/10/27 12:04:34;;;;;;;40.88;17.58;;;17.90;61.90;;;;;;5098928;28;20223;-61
2023/10/27 12:07:01;;;;;;;31.13;14.10;;;18.00;61.90;;;;;;5098352;28;20221;-58
2023/10/27 12:09:30;;;;;;;45.88;13.63;;;18.10;61.90;;;;;;5095852;28;20197;-60
2023/10/27 12:11:57;;;;;;;26.73;9.77;;;18.10;61.50;;;;;;5088454;28;20214;-58
2023/10/27 12:14:24;;;;;;;25.42;8.60;;;18.20;61.20;;;;;;5092114;28;20200;-62
2023/10/27 12:16:51;;;;;;;28.92;8.73;;;18.10;61.40;;;;;;5088948;28;20253;-62
2023/10/27 12:19:18;;;;;;;26.25;8.70;;;18.10;61.50;;;;;;5095176;28;20328;-58
2023/10/27 12:21:46;;;;;;;26.85;8.23;;;18.10;61.50;;;;;;5099654;28;20259;-59
2023/10/27 12:24:15;;;;;;;36.08;10.80;;;18.10;61.50;;;;;;5091052;28;20205;-60
2023/10/27 12:26:44;;;;;;;36.70;12.75;;;18.10;61.50;;;;;;5091097;28;20707;-58
2023/10/27 12:29:11;;;;;;;30.40;9.98;;;18.10;61.30;;;;;;5093395;28;20276;-61
2023/10/27 12:31:39;;;;;;;27.10;9.82;;;18.10;61.20;;;;;;5094258;28;20228;-62
2023/10/27 12:34:08;;;;;;;28.45;7.75;;;18.10;61.20;;;;;;5090684;28;20304;-62
2023/10/27 12:36:35;;;;;;;30.33;7.72;;;18.10;61.00;;;;;;5100086;28;20683;-62
2023/10/27 12:39:03;;;;;;;22.60;5.57;;;18.10;61.20;;;;;;5095998;28;20637;-61
2023/10/27 12:41:30;;;;;;;24.65;7.00;;;18.00;60.90;;;;;;5096187;28;20340;-60
2023/10/27 12:43:59;;;;;;;24.38;7.25;;;18.00;61.10;;;;;;5097091;27;20275;-63
2023/10/27 12:46:26;;;;;;;23.95;7.78;;;18.00;61.20;;;;;;5089275;28;20201;-62
2023/10/27 12:48:53;;;;;;;24.55;8.35;;;18.00;61.10;;;;;;5095610;28;20313;-60
2023/10/27 12:51:20;;;;;;;23.25;7.57;;;18.00;61.30;;;;;;5096377;28;20198;-61
2023/10/27 12:53:47;;;;;;;32.35;10.40;;;18.00;61.40;;;;;;5089430;28;20699;-62
2023/10/27 12:56:14;;;;;;;32.17;13.05;;;18.10;61.50;;;;;;5095094;28;20194;-62
2023/10/27 12:58:42;;;;;;;37.03;11.52;;;18.10;61.60;;;;;;5096380;28;20204;-61
2023/10/27 13:01:11;;;;;;;23.10;7.30;;;18.10;62.50;;;;;;5091300;28;20210;-60
2023/10/27 13:03:39;;;;;;;21.88;5.75;;;18.10;62.60;;;;;;5095594;28;20227;-61
2023/10/27 13:06:06;;;;;;;19.80;4.50;;;17.80;61.70;;;;;;5091059;28;20193;-62
2023/10/27 13:08:33;;;;;;;17.65;4.32;;;17.60;60.60;;;;;;5098210;28;20197;-62
2023/10/27 13:11:04;;;;;;;21.95;4.90;;;17.40;62.00;;;;;;5088920;28;20305;-62
2023/10/27 13:13:34;;;;;;;22.90;7.80;;;17.50;63.20;;;;;;5088768;28;20285;-57
2023/10/27 13:16:01;;;;;;;19.38;7.18;;;17.60;63.50;;;;;;5090847;28;20225;-62
2023/10/27 13:18:31;;;;;;;17.23;6.57;;;17.70;62.90;;;;;;5091417;28;20224;-55
2023/10/27 13:20:58;;;;;;;19.35;5.95;;;17.80;62.50;;;;;;5090365;28;20218;-61
2023/10/27 13:23:25;;;;;;;14.65;5.25;;;17.80;62.10;;;;;;5090833;28;20749;-62
2023/10/27 13:26:14;;;;;;;13.38;5.13;;;17.90;62.00;;;;;;5087933;28;20254;-60